createdAt,value
2023-02-14T00:00:15.465Z,86.21
2023-02-14T00:01:28.960Z,86.10
2023-02-14T00:02:15.969Z,85.86
2023-02-14T00:03:06.167Z,85.59
2023-02-14T00:03:53.313Z,85.68
2023-02-14T00:04:44.345Z,85.65
2023-02-14T00:05:31.334Z,85.55
2023-02-14T00:06:18.516Z,85.92
2023-02-14T00:07:08.738Z,86.54
2023-02-14T00:07:55.758Z,86.96
2023-02-14T00:08:45.203Z,86.03
2023-02-14T00:09:32.865Z,86.08
2023-02-14T00:10:20.223Z,86.01
2023-02-14T00:11:09.230Z,85.87
2023-02-14T00:11:56.607Z,85.33
2023-02-14T00:12:43.857Z,85.18
2023-02-14T00:13:31.135Z,84.90
2023-02-14T00:14:36.852Z,85.01
2023-02-14T00:15:24.116Z,85.23
2023-02-14T00:16:13.297Z,85.27
2023-02-14T00:17:00.653Z,84.94
2023-02-14T00:17:48.082Z,83.89
2023-02-14T00:18:53.682Z,83.83
2023-02-14T00:19:40.691Z,83.61
2023-02-14T00:20:28.978Z,83.50
2023-02-14T00:21:15.937Z,83.83
2023-02-14T00:22:04.337Z,83.44
2023-02-14T00:22:51.396Z,83.72
2023-02-14T00:23:38.356Z,83.48
2023-02-14T00:24:26.766Z,83.46
2023-02-14T00:25:13.890Z,83.44
2023-02-14T00:26:00.813Z,83.58
2023-02-14T00:26:48.302Z,83.65
2023-02-14T00:27:35.336Z,83.85
2023-02-14T00:28:22.357Z,83.54
2023-02-14T00:29:12.501Z,83.17
2023-02-14T00:30:02.379Z,83.00
2023-02-14T00:30:49.722Z,82.93
2023-02-14T00:31:39.111Z,82.46
2023-02-14T00:32:26.515Z,82.64
2023-02-14T00:33:13.476Z,82.81
2023-02-14T00:34:00.817Z,82.94
2023-02-14T00:34:48.116Z,83.08
2023-02-14T00:35:38.357Z,82.53
2023-02-14T00:36:25.446Z,82.70
2023-02-14T00:37:12.673Z,82.65
2023-02-14T00:37:59.647Z,82.58
2023-02-14T00:38:46.601Z,82.72
2023-02-14T00:39:33.614Z,82.84
2023-02-14T00:40:20.692Z,83.07
2023-02-14T00:41:07.839Z,83.08
2023-02-14T00:41:55.213Z,82.87
2023-02-14T00:42:42.268Z,82.57
2023-02-14T00:43:29.664Z,83.02
2023-02-14T00:44:17.206Z,83.47
2023-02-14T00:45:04.437Z,83.53
2023-02-14T00:45:51.811Z,83.30
2023-02-14T00:46:38.963Z,82.97
2023-02-14T00:47:26.035Z,83.05
2023-02-14T00:48:13.406Z,83.36
2023-02-14T00:49:00.717Z,83.27
2023-02-14T00:49:47.722Z,83.12
2023-02-14T00:50:34.678Z,83.28
2023-02-14T00:51:22.356Z,83.33
2023-02-14T00:52:09.360Z,83.12
2023-02-14T00:52:56.654Z,82.77
2023-02-14T00:53:43.686Z,82.57
2023-02-14T00:54:30.645Z,82.75
2023-02-14T00:55:17.881Z,82.76
2023-02-14T00:56:06.596Z,82.72
2023-02-14T00:56:53.631Z,83.04
2023-02-14T00:57:40.593Z,83.17
2023-02-14T00:58:28.250Z,83.39
2023-02-14T00:59:15.655Z,83.12
2023-02-14T01:00:02.986Z,82.93
2023-02-14T01:00:50.023Z,83.03
2023-02-14T01:01:37.199Z,82.97
2023-02-14T01:02:24.710Z,83.25
2023-02-14T01:03:11.726Z,83.02
2023-02-14T01:03:59.205Z,82.82
2023-02-14T01:04:46.274Z,83.24
2023-02-14T01:05:33.188Z,83.22
2023-02-14T01:06:20.508Z,82.98
2023-02-14T01:07:07.557Z,82.90
2023-02-14T01:07:54.445Z,83.04
2023-02-14T01:08:41.491Z,82.97
2023-02-14T01:09:29.033Z,82.80
2023-02-14T01:10:16.197Z,83.21
2023-02-14T01:11:19.812Z,83.77
2023-02-14T01:12:07.009Z,83.63
2023-02-14T01:12:54.037Z,83.37
2023-02-14T01:13:44.963Z,83.33
2023-02-14T01:14:32.123Z,83.32
2023-02-14T01:15:19.547Z,83.08
2023-02-14T01:16:09.218Z,82.60
2023-02-14T01:16:59.567Z,82.61
2023-02-14T01:17:46.515Z,83.04
2023-02-14T01:18:34.111Z,83.40
2023-02-14T01:19:22.378Z,83.47
2023-02-14T01:20:10.196Z,83.14
2023-02-14T01:20:57.485Z,83.02
2023-02-14T01:21:44.802Z,83.00
2023-02-14T01:22:37.166Z,83.66
2023-02-14T01:23:24.407Z,83.60
2023-02-14T01:24:14.697Z,83.36
2023-02-14T01:25:01.648Z,83.33
2023-02-14T01:25:48.685Z,83.47
2023-02-14T01:26:36.206Z,83.58
2023-02-14T01:27:23.165Z,83.55
2023-02-14T01:28:10.102Z,83.79
2023-02-14T01:28:57.633Z,84.03
2023-02-14T01:29:44.731Z,84.06
2023-02-14T01:30:31.824Z,84.11
2023-02-14T01:31:21.650Z,84.10
2023-02-14T01:32:08.808Z,83.79
2023-02-14T01:32:56.142Z,83.61
2023-02-14T01:33:44.842Z,83.92
2023-02-14T01:34:31.825Z,84.01
2023-02-14T01:35:19.075Z,84.01
2023-02-14T01:36:06.977Z,83.92
2023-02-14T01:36:53.916Z,83.77
2023-02-14T01:37:41.207Z,83.99
2023-02-14T01:38:28.275Z,84.19
2023-02-14T01:39:16.316Z,84.27
2023-02-14T01:40:04.776Z,84.02
2023-02-14T01:40:53.918Z,84.16
2023-02-14T01:41:42.384Z,84.09
2023-02-14T01:42:32.240Z,83.98
2023-02-14T01:43:19.284Z,84.10
2023-02-14T01:44:15.579Z,84.04
2023-02-14T01:45:07.251Z,83.91
2023-02-14T01:45:54.237Z,84.08
2023-02-14T01:46:48.448Z,83.82
2023-02-14T01:47:38.496Z,83.81
2023-02-14T01:48:25.772Z,83.92
2023-02-14T01:49:18.769Z,83.94
2023-02-14T01:50:13.176Z,83.84
2023-02-14T01:51:02.867Z,84.03
2023-02-14T01:52:04.138Z,84.05
2023-02-14T01:52:54.311Z,83.92
2023-02-14T01:53:41.339Z,84.00
2023-02-14T01:54:29.255Z,84.43
2023-02-14T01:55:29.399Z,84.40
2023-02-14T01:56:21.272Z,84.34
2023-02-14T01:57:10.625Z,83.88
2023-02-14T01:58:02.922Z,83.95
2023-02-14T01:58:53.752Z,83.93
2023-02-14T01:59:46.222Z,84.19
2023-02-14T02:00:52.276Z,84.43
2023-02-14T02:01:39.875Z,83.95
2023-02-14T02:02:26.966Z,84.00
2023-02-14T02:03:14.703Z,84.00
2023-02-14T02:04:10.886Z,84.09
2023-02-14T02:04:57.882Z,83.97
2023-02-14T02:05:51.114Z,83.83
2023-02-14T02:06:44.097Z,83.87
2023-02-14T02:07:31.132Z,83.98
2023-02-14T02:08:18.273Z,84.01
2023-02-14T02:09:20.857Z,84.12
2023-02-14T02:10:08.450Z,84.05
2023-02-14T02:10:55.402Z,84.19
2023-02-14T02:11:42.858Z,84.45
2023-02-14T02:12:31.149Z,84.17
2023-02-14T02:13:19.796Z,84.31
2023-02-14T02:14:06.853Z,84.72
2023-02-14T02:14:55.983Z,84.77
2023-02-14T02:15:54.580Z,84.52
2023-02-14T02:17:06.304Z,84.44
2023-02-14T02:18:12.202Z,84.34
2023-02-14T02:19:14.996Z,84.14
2023-02-14T02:20:20.599Z,83.96
2023-02-14T02:21:16.704Z,83.98
2023-02-14T02:22:29.855Z,83.94
2023-02-14T02:23:35.171Z,83.64
2023-02-14T02:24:25.100Z,83.86
2023-02-14T02:25:35.328Z,83.85
2023-02-14T02:26:34.062Z,84.15
2023-02-14T02:27:43.054Z,84.20
2023-02-14T02:29:14.485Z,84.09
2023-02-14T02:30:07.025Z,83.93
2023-02-14T02:31:31.597Z,84.14
2023-02-14T02:32:26.173Z,84.19
2023-02-14T02:33:40.403Z,84.05
2023-02-14T02:34:51.638Z,84.05
2023-02-14T02:36:08.993Z,84.12
2023-02-14T02:37:11.564Z,83.87
2023-02-14T02:38:01.490Z,84.00
2023-02-14T02:38:55.134Z,83.94
2023-02-14T02:39:52.689Z,83.76
2023-02-14T02:41:07.636Z,84.25
2023-02-14T02:42:16.124Z,84.25
2023-02-14T02:43:37.371Z,84.48
2023-02-14T02:44:39.537Z,84.45
2023-02-14T02:45:58.547Z,84.12
2023-02-14T02:47:22.836Z,83.63
2023-02-14T02:48:18.215Z,83.18
2023-02-14T02:49:36.527Z,83.67
2023-02-14T02:50:49.510Z,83.63
2023-02-14T02:52:10.355Z,83.91
2023-02-14T02:53:25.002Z,84.30
2023-02-14T02:54:27.137Z,84.42
2023-02-14T02:55:19.606Z,83.83
2023-02-14T02:56:38.969Z,83.83
2023-02-14T02:57:36.229Z,84.01
2023-02-14T02:58:26.598Z,83.73
2023-02-14T02:59:23.703Z,83.95
2023-02-14T03:00:12.994Z,83.83
2023-02-14T03:01:01.679Z,84.12
2023-02-14T03:01:55.250Z,84.46
2023-02-14T03:03:04.577Z,84.26
2023-02-14T03:04:15.170Z,84.15
2023-02-14T03:05:04.935Z,84.41
2023-02-14T03:05:52.050Z,84.15
2023-02-14T03:06:39.078Z,84.07
2023-02-14T03:07:35.153Z,84.36
2023-02-14T03:08:22.089Z,84.07
2023-02-14T03:09:13.453Z,84.06
2023-02-14T03:10:02.209Z,83.88
2023-02-14T03:10:49.234Z,84.10
2023-02-14T03:11:37.694Z,84.17
2023-02-14T03:12:33.667Z,84.52
2023-02-14T03:13:32.206Z,84.40
2023-02-14T03:14:27.180Z,84.24
2023-02-14T03:15:20.040Z,84.13
2023-02-14T03:16:27.343Z,84.35
2023-02-14T03:17:46.593Z,84.76
2023-02-14T03:19:17.090Z,84.60
2023-02-14T03:20:18.252Z,84.40
2023-02-14T03:21:30.479Z,84.49
2023-02-14T03:23:06.339Z,84.19
2023-02-14T03:23:56.209Z,84.19
2023-02-14T03:25:02.021Z,84.07
2023-02-14T03:25:58.985Z,84.13
2023-02-14T03:26:53.660Z,84.07
2023-02-14T03:27:50.443Z,84.14
2023-02-14T03:29:17.872Z,84.43
2023-02-14T03:30:16.727Z,84.67
2023-02-14T03:31:11.629Z,84.76
2023-02-14T03:32:32.325Z,85.02
2023-02-14T03:33:27.849Z,84.69
2023-02-14T03:34:28.471Z,84.46
2023-02-14T03:36:02.361Z,84.76
2023-02-14T03:36:54.695Z,84.87
2023-02-14T03:38:17.161Z,85.30
2023-02-14T03:39:17.768Z,85.04
2023-02-14T03:40:13.315Z,84.88
2023-02-14T03:41:06.040Z,84.86
2023-02-14T03:42:07.050Z,84.81
2023-02-14T03:42:58.041Z,84.92
2023-02-14T03:43:51.333Z,84.90
2023-02-14T03:44:38.616Z,84.87
2023-02-14T03:45:43.582Z,84.88
2023-02-14T03:46:34.940Z,84.92
2023-02-14T03:47:24.795Z,85.04
2023-02-14T03:48:14.161Z,85.06
2023-02-14T03:49:05.357Z,85.02
2023-02-14T03:50:10.835Z,85.34
2023-02-14T03:50:58.548Z,85.10
2023-02-14T03:51:49.317Z,85.32
2023-02-14T03:52:37.513Z,85.18
2023-02-14T03:53:27.842Z,84.83
2023-02-14T03:54:16.501Z,84.83
2023-02-14T03:55:06.059Z,85.26
2023-02-14T03:56:04.203Z,85.26
2023-02-14T03:56:57.962Z,85.23
2023-02-14T03:58:12.637Z,85.48
2023-02-14T03:59:06.338Z,85.89
2023-02-14T03:59:54.053Z,85.34
2023-02-14T04:00:42.528Z,85.32
2023-02-14T04:02:02.356Z,85.38
2023-02-14T04:02:54.093Z,84.91
2023-02-14T04:03:42.807Z,84.98
2023-02-14T04:04:36.104Z,84.93
2023-02-14T04:05:27.735Z,84.98
2023-02-14T04:06:18.288Z,85.18
2023-02-14T04:07:13.263Z,85.42
2023-02-14T04:08:00.238Z,85.00
2023-02-14T04:08:47.663Z,84.85
2023-02-14T04:09:34.581Z,85.10
2023-02-14T04:10:22.089Z,85.06
2023-02-14T04:11:09.236Z,85.03
2023-02-14T04:11:56.543Z,85.31
2023-02-14T04:12:43.635Z,85.29
2023-02-14T04:13:30.802Z,85.33
2023-02-14T04:14:18.004Z,84.91
2023-02-14T04:15:05.637Z,84.96
2023-02-14T04:15:52.651Z,85.00
2023-02-14T04:16:58.316Z,85.32
2023-02-14T04:18:03.927Z,85.03
2023-02-14T04:19:09.648Z,85.30
2023-02-14T04:19:56.592Z,85.02
2023-02-14T04:20:43.545Z,85.46
2023-02-14T04:21:30.499Z,85.42
2023-02-14T04:22:17.595Z,85.50
2023-02-14T04:23:04.672Z,85.39
2023-02-14T04:23:51.651Z,85.25
2023-02-14T04:24:38.667Z,85.14
2023-02-14T04:25:25.974Z,85.24
2023-02-14T04:26:12.955Z,85.48
2023-02-14T04:27:11.784Z,85.25
2023-02-14T04:27:58.758Z,85.36
2023-02-14T04:28:45.696Z,85.51
2023-02-14T04:29:32.690Z,85.66
2023-02-14T04:30:21.168Z,85.61
2023-02-14T04:31:08.299Z,85.39
2023-02-14T04:31:55.473Z,85.35
2023-02-14T04:32:42.484Z,85.49
2023-02-14T04:33:32.110Z,85.25
2023-02-14T04:34:19.078Z,85.22
2023-02-14T04:35:06.487Z,85.42
2023-02-14T04:35:53.497Z,85.53
2023-02-14T04:36:40.468Z,85.59
2023-02-14T04:37:27.671Z,85.49
2023-02-14T04:38:14.767Z,85.41
2023-02-14T04:39:01.720Z,85.22
2023-02-14T04:39:48.884Z,85.60
2023-02-14T04:40:35.869Z,85.52
2023-02-14T04:41:22.849Z,85.45
2023-02-14T04:42:10.002Z,85.39
2023-02-14T04:42:57.101Z,85.56
2023-02-14T04:43:44.042Z,85.59
2023-02-14T04:44:31.057Z,85.67
2023-02-14T04:45:18.167Z,86.09
2023-02-14T04:46:05.231Z,85.90
2023-02-14T04:46:52.458Z,85.77
2023-02-14T04:47:39.718Z,85.51
2023-02-14T04:48:26.773Z,85.89
2023-02-14T04:49:13.877Z,85.99
2023-02-14T04:50:00.845Z,86.19
2023-02-14T04:50:52.854Z,86.39
2023-02-14T04:51:39.871Z,86.26
2023-02-14T04:52:27.169Z,86.03
2023-02-14T04:53:14.099Z,85.92
2023-02-14T04:54:01.092Z,85.82
2023-02-14T04:54:49.039Z,86.14
2023-02-14T04:55:35.970Z,86.44
2023-02-14T04:56:22.971Z,86.25
2023-02-14T04:57:10.122Z,86.19
2023-02-14T04:57:57.080Z,86.21
2023-02-14T04:58:44.078Z,86.00
2023-02-14T04:59:31.077Z,86.30
2023-02-14T05:00:18.606Z,86.36
2023-02-14T05:01:05.755Z,86.57
2023-02-14T05:01:53.769Z,86.42
2023-02-14T05:02:40.843Z,86.27
2023-02-14T05:03:27.850Z,86.34
2023-02-14T05:04:14.881Z,86.58
2023-02-14T05:05:01.876Z,86.28
2023-02-14T05:05:48.834Z,86.28
2023-02-14T05:06:35.804Z,86.56
2023-02-14T05:07:22.652Z,86.57
2023-02-14T05:08:09.939Z,86.93
2023-02-14T05:08:57.003Z,86.66
2023-02-14T05:09:44.009Z,86.59
2023-02-14T05:10:31.198Z,86.64
2023-02-14T05:11:18.172Z,86.40
2023-02-14T05:12:05.251Z,86.53
2023-02-14T05:12:52.131Z,86.58
2023-02-14T05:13:39.121Z,86.81
2023-02-14T05:14:26.175Z,87.04
2023-02-14T05:15:13.155Z,86.93
2023-02-14T05:16:00.273Z,87.08
2023-02-14T05:16:47.402Z,87.15
2023-02-14T05:17:34.362Z,87.03
2023-02-14T05:18:22.005Z,86.73
2023-02-14T05:19:09.169Z,86.59
2023-02-14T05:19:56.199Z,86.66
2023-02-14T05:20:43.230Z,86.52
2023-02-14T05:21:33.298Z,86.59
2023-02-14T05:22:20.274Z,86.81
2023-02-14T05:23:13.830Z,86.65
2023-02-14T05:24:01.722Z,86.73
2023-02-14T05:24:48.721Z,86.69
2023-02-14T05:25:35.741Z,86.58
2023-02-14T05:26:22.817Z,86.62
2023-02-14T05:27:11.917Z,86.58
2023-02-14T05:27:58.892Z,86.61
2023-02-14T05:28:45.950Z,86.78
2023-02-14T05:29:33.019Z,86.82
2023-02-14T05:30:22.662Z,86.92
2023-02-14T05:31:10.293Z,87.05
2023-02-14T05:31:57.496Z,87.16
2023-02-14T05:32:44.487Z,87.17
2023-02-14T05:33:31.482Z,87.54
2023-02-14T05:34:18.956Z,87.72
2023-02-14T05:35:06.397Z,87.43
2023-02-14T05:35:53.390Z,87.44
2023-02-14T05:36:40.453Z,88.00
2023-02-14T05:37:27.405Z,87.96
2023-02-14T05:38:14.520Z,87.90
2023-02-14T05:39:01.481Z,87.96
2023-02-14T05:39:48.395Z,87.75
2023-02-14T05:40:35.488Z,87.58
2023-02-14T05:41:22.457Z,87.72
2023-02-14T05:42:12.718Z,87.72
2023-02-14T05:42:59.650Z,87.74
2023-02-14T05:43:46.531Z,87.26
2023-02-14T05:44:33.490Z,87.26
2023-02-14T05:45:20.575Z,87.13
2023-02-14T05:46:09.924Z,86.85
2023-02-14T05:46:57.067Z,86.81
2023-02-14T05:47:44.061Z,87.19
2023-02-14T05:48:31.082Z,87.50
2023-02-14T05:49:20.725Z,87.36
2023-02-14T05:50:08.465Z,87.23
2023-02-14T05:50:55.528Z,87.60
2023-02-14T05:51:48.886Z,87.74
2023-02-14T05:52:35.895Z,87.86
2023-02-14T05:53:23.665Z,87.60
2023-02-14T05:54:11.154Z,87.58
2023-02-14T05:54:58.198Z,87.68
2023-02-14T05:55:45.200Z,87.68
2023-02-14T05:56:32.220Z,87.77
2023-02-14T05:57:19.214Z,87.96
2023-02-14T05:58:06.368Z,87.27
2023-02-14T05:58:56.743Z,86.78
2023-02-14T05:59:43.897Z,87.30
2023-02-14T06:00:31.551Z,87.62
2023-02-14T06:01:18.610Z,87.62
2023-02-14T06:02:05.745Z,88.00
2023-02-14T06:02:52.855Z,88.30
2023-02-14T06:03:39.886Z,89.07
2023-02-14T06:04:27.004Z,88.58
2023-02-14T06:05:15.131Z,87.92
2023-02-14T06:06:02.166Z,87.51
2023-02-14T06:06:49.163Z,87.38
2023-02-14T06:07:36.212Z,87.36
2023-02-14T06:08:23.556Z,87.34
2023-02-14T06:09:10.556Z,87.69
2023-02-14T06:09:57.540Z,87.88
2023-02-14T06:10:44.562Z,88.06
2023-02-14T06:11:31.545Z,88.21
2023-02-14T06:12:18.470Z,87.54
2023-02-14T06:13:09.162Z,87.25
2023-02-14T06:13:55.935Z,87.75
2023-02-14T06:14:43.216Z,87.52
2023-02-14T06:15:30.248Z,87.88
2023-02-14T06:16:17.374Z,87.66
2023-02-14T06:17:04.437Z,87.88
2023-02-14T06:17:53.400Z,87.71
2023-02-14T06:18:40.384Z,87.55
2023-02-14T06:19:27.362Z,87.21
2023-02-14T06:20:14.421Z,87.73
2023-02-14T06:21:01.640Z,87.91
2023-02-14T06:21:48.834Z,87.82
2023-02-14T06:22:37.102Z,87.85
2023-02-14T06:23:24.202Z,87.26
2023-02-14T06:24:11.257Z,87.43
2023-02-14T06:24:58.239Z,87.52
2023-02-14T06:25:45.218Z,87.62
2023-02-14T06:26:33.182Z,87.28
2023-02-14T06:27:20.195Z,87.05
2023-02-14T06:28:07.242Z,87.39
2023-02-14T06:28:55.485Z,87.51
2023-02-14T06:29:42.458Z,87.29
2023-02-14T06:30:29.636Z,87.41
2023-02-14T06:31:17.976Z,87.75
2023-02-14T06:32:07.334Z,87.75
2023-02-14T06:32:54.522Z,87.62
2023-02-14T06:33:41.535Z,87.18
2023-02-14T06:34:28.557Z,87.13
2023-02-14T06:35:15.737Z,87.41
2023-02-14T06:36:02.780Z,87.00
2023-02-14T06:36:49.724Z,86.83
2023-02-14T06:37:36.610Z,86.62
2023-02-14T06:38:23.608Z,86.97
2023-02-14T06:39:10.754Z,86.82
2023-02-14T06:39:57.783Z,86.83
2023-02-14T06:40:44.802Z,86.69
2023-02-14T06:41:31.798Z,86.91
2023-02-14T06:42:18.922Z,86.65
2023-02-14T06:43:05.944Z,86.71
2023-02-14T06:43:52.889Z,86.73
2023-02-14T06:44:41.897Z,87.58
2023-02-14T06:45:28.855Z,87.18
2023-02-14T06:46:17.068Z,87.20
2023-02-14T06:47:04.762Z,86.94
2023-02-14T06:47:52.000Z,86.70
2023-02-14T06:48:38.972Z,86.41
2023-02-14T06:49:26.051Z,86.86
2023-02-14T06:50:13.154Z,86.38
2023-02-14T06:51:00.600Z,86.31
2023-02-14T06:51:47.799Z,86.06
2023-02-14T06:52:34.845Z,86.30
2023-02-14T06:53:22.092Z,86.61
2023-02-14T06:54:09.156Z,86.35
2023-02-14T06:54:58.169Z,86.11
2023-02-14T06:55:45.453Z,85.91
2023-02-14T06:56:32.540Z,86.02
2023-02-14T06:57:19.480Z,85.92
2023-02-14T06:58:06.442Z,85.71
2023-02-14T06:58:53.414Z,85.67
2023-02-14T06:59:40.641Z,85.67
2023-02-14T07:00:27.755Z,86.13
2023-02-14T07:01:14.774Z,85.69
2023-02-14T07:02:02.163Z,85.48
2023-02-14T07:02:49.192Z,85.40
2023-02-14T07:03:36.170Z,85.61
2023-02-14T07:04:23.154Z,85.60
2023-02-14T07:05:10.124Z,85.56
2023-02-14T07:05:58.149Z,85.40
2023-02-14T07:06:46.456Z,85.16
2023-02-14T07:07:33.363Z,85.40
2023-02-14T07:08:21.784Z,85.46
2023-02-14T07:09:08.781Z,85.37
2023-02-14T07:09:55.738Z,85.93
2023-02-14T07:10:42.692Z,85.96
2023-02-14T07:11:29.797Z,85.97
2023-02-14T07:12:16.697Z,86.03
2023-02-14T07:13:03.773Z,85.90
2023-02-14T07:13:50.762Z,85.47
2023-02-14T07:14:37.699Z,85.61
2023-02-14T07:15:24.660Z,85.53
2023-02-14T07:16:12.059Z,85.35
2023-02-14T07:16:59.057Z,85.01
2023-02-14T07:17:46.157Z,84.93
2023-02-14T07:18:33.082Z,85.44
2023-02-14T07:19:20.152Z,85.65
2023-02-14T07:20:08.055Z,85.73
2023-02-14T07:20:55.019Z,85.66
2023-02-14T07:21:42.049Z,85.75
2023-02-14T07:22:30.369Z,85.64
2023-02-14T07:23:17.703Z,85.65
2023-02-14T07:24:04.687Z,85.66
2023-02-14T07:24:51.657Z,85.57
2023-02-14T07:25:38.642Z,85.27
2023-02-14T07:26:25.696Z,85.32
2023-02-14T07:27:13.193Z,85.57
2023-02-14T07:28:00.137Z,85.25
2023-02-14T07:28:52.550Z,84.82
2023-02-14T07:29:39.584Z,84.76
2023-02-14T07:30:26.681Z,85.12
2023-02-14T07:31:13.845Z,85.28
2023-02-14T07:32:00.995Z,84.95
2023-02-14T07:32:48.097Z,84.59
2023-02-14T07:33:35.060Z,84.63
2023-02-14T07:34:22.020Z,84.57
2023-02-14T07:35:09.254Z,84.41
2023-02-14T07:35:56.924Z,84.58
2023-02-14T07:36:44.401Z,84.62
2023-02-14T07:37:34.977Z,85.27
2023-02-14T07:38:21.933Z,84.90
2023-02-14T07:39:08.980Z,84.91
2023-02-14T07:39:55.965Z,84.77
2023-02-14T07:40:42.947Z,84.98
2023-02-14T07:41:29.861Z,85.06
2023-02-14T07:42:17.116Z,84.70
2023-02-14T07:43:04.076Z,84.56
2023-02-14T07:43:51.214Z,84.60
2023-02-14T07:44:39.263Z,84.84
2023-02-14T07:45:26.254Z,84.62
2023-02-14T07:46:13.439Z,85.01
2023-02-14T07:47:00.420Z,84.72
2023-02-14T07:47:54.471Z,84.44
2023-02-14T07:48:41.468Z,84.71
2023-02-14T07:49:30.457Z,84.10
2023-02-14T07:50:17.683Z,84.13
2023-02-14T07:51:04.650Z,84.26
2023-02-14T07:51:51.611Z,84.39
2023-02-14T07:52:38.558Z,84.39
2023-02-14T07:53:25.791Z,84.70
2023-02-14T07:54:16.960Z,84.91
2023-02-14T07:55:04.073Z,84.38
2023-02-14T07:55:52.498Z,84.40
2023-02-14T07:56:39.455Z,84.30
2023-02-14T07:57:26.409Z,83.98
2023-02-14T07:58:13.389Z,84.08
2023-02-14T07:59:00.600Z,84.40
2023-02-14T07:59:49.650Z,84.57
2023-02-14T08:00:36.644Z,84.36
2023-02-14T08:01:23.823Z,84.10
2023-02-14T08:02:12.843Z,84.14
2023-02-14T08:02:59.895Z,84.13
2023-02-14T08:03:49.796Z,84.16
2023-02-14T08:04:36.834Z,83.99
2023-02-14T08:05:24.129Z,83.52
2023-02-14T08:06:11.206Z,83.43
2023-02-14T08:06:58.194Z,83.23
2023-02-14T08:07:46.538Z,83.62
2023-02-14T08:08:33.566Z,83.59
2023-02-14T08:09:26.979Z,83.57
2023-02-14T08:10:13.989Z,83.28
2023-02-14T08:11:01.519Z,82.99
2023-02-14T08:12:07.251Z,83.14
2023-02-14T08:13:00.378Z,83.50
2023-02-14T08:13:47.339Z,83.92
2023-02-14T08:14:34.357Z,83.42
2023-02-14T08:15:40.158Z,83.53
2023-02-14T08:16:29.334Z,83.22
2023-02-14T08:17:16.488Z,82.82
2023-02-14T08:18:03.738Z,82.79
2023-02-14T08:18:50.738Z,82.74
2023-02-14T08:19:37.731Z,82.56
2023-02-14T08:20:24.750Z,82.22
2023-02-14T08:21:11.768Z,82.59
2023-02-14T08:21:59.489Z,82.15
2023-02-14T08:22:46.486Z,82.32
2023-02-14T08:23:33.720Z,81.93
2023-02-14T08:24:20.727Z,81.95
2023-02-14T08:25:07.989Z,81.74
2023-02-14T08:25:55.454Z,81.96
2023-02-14T08:26:42.523Z,81.54
2023-02-14T08:27:29.564Z,81.65
2023-02-14T08:28:17.242Z,81.65
2023-02-14T08:29:04.213Z,82.20
2023-02-14T08:29:51.171Z,82.34
2023-02-14T08:30:39.201Z,82.48
2023-02-14T08:31:35.695Z,82.21
2023-02-14T08:32:23.643Z,81.85
2023-02-14T08:33:11.098Z,82.03
2023-02-14T08:33:58.164Z,82.18
2023-02-14T08:34:45.312Z,81.76
2023-02-14T08:35:32.319Z,81.53
2023-02-14T08:36:19.282Z,81.30
2023-02-14T08:37:06.240Z,81.03
2023-02-14T08:37:53.315Z,81.33
2023-02-14T08:38:41.804Z,81.41
2023-02-14T08:39:28.811Z,81.58
2023-02-14T08:40:15.916Z,81.37
2023-02-14T08:41:06.659Z,80.85
2023-02-14T08:41:55.117Z,81.14
2023-02-14T08:42:42.097Z,81.00
2023-02-14T08:43:29.174Z,80.75
2023-02-14T08:44:16.717Z,80.64
2023-02-14T08:45:04.092Z,81.09
2023-02-14T08:45:54.247Z,81.07
2023-02-14T08:46:41.251Z,81.04
2023-02-14T08:47:28.244Z,80.95
2023-02-14T08:48:18.264Z,80.79
2023-02-14T08:49:05.656Z,80.39
2023-02-14T08:49:52.599Z,80.68
2023-02-14T08:50:40.373Z,80.54
2023-02-14T08:51:27.445Z,80.20
2023-02-14T08:52:14.444Z,79.85
2023-02-14T08:53:01.378Z,79.52
2023-02-14T08:53:50.932Z,79.77
2023-02-14T08:54:39.955Z,79.56
2023-02-14T08:55:27.887Z,79.72
2023-02-14T08:56:15.338Z,80.04
2023-02-14T08:57:04.777Z,80.12
2023-02-14T08:57:51.695Z,79.85
2023-02-14T08:58:39.124Z,79.55
2023-02-14T08:59:26.157Z,79.54
2023-02-14T09:00:15.685Z,79.68
2023-02-14T09:01:09.215Z,79.53
2023-02-14T09:01:56.289Z,79.76
2023-02-14T09:02:43.312Z,80.00
2023-02-14T09:03:30.413Z,80.18
2023-02-14T09:04:17.628Z,80.24
2023-02-14T09:05:04.821Z,79.73
2023-02-14T09:05:51.839Z,79.97
2023-02-14T09:06:39.856Z,80.13
2023-02-14T09:07:27.076Z,79.76
2023-02-14T09:08:14.184Z,79.81
2023-02-14T09:09:02.552Z,80.24
2023-02-14T09:09:49.727Z,80.25
2023-02-14T09:10:37.001Z,79.80
2023-02-14T09:11:25.233Z,79.75
2023-02-14T09:12:12.215Z,79.81
2023-02-14T09:12:59.240Z,79.71
2023-02-14T09:13:46.857Z,79.38
2023-02-14T09:14:38.437Z,79.48
2023-02-14T09:15:25.579Z,79.29
2023-02-14T09:16:13.656Z,78.97
2023-02-14T09:17:03.866Z,78.78
2023-02-14T09:17:52.201Z,78.47
2023-02-14T09:18:40.182Z,78.96
2023-02-14T09:19:27.164Z,79.00
2023-02-14T09:20:15.489Z,79.46
2023-02-14T09:21:03.316Z,79.18
2023-02-14T09:21:50.333Z,79.06
2023-02-14T09:22:39.555Z,78.30
2023-02-14T09:23:26.555Z,77.73
2023-02-14T09:24:13.556Z,78.05
2023-02-14T09:25:01.390Z,78.04
2023-02-14T09:25:48.434Z,77.88
2023-02-14T09:26:37.169Z,77.38
2023-02-14T09:27:24.201Z,77.02
2023-02-14T09:28:13.302Z,77.49
2023-02-14T09:29:00.321Z,77.73
2023-02-14T09:29:47.313Z,77.77
2023-02-14T09:30:34.311Z,77.76
2023-02-14T09:31:23.864Z,78.17
2023-02-14T09:32:11.256Z,78.23
2023-02-14T09:32:58.376Z,77.93
2023-02-14T09:33:46.534Z,77.61
2023-02-14T09:34:53.997Z,77.48
2023-02-14T09:35:40.967Z,77.65
2023-02-14T09:36:27.953Z,77.15
2023-02-14T09:37:33.763Z,77.43
2023-02-14T09:38:21.079Z,77.36
2023-02-14T09:39:08.164Z,76.80
2023-02-14T09:39:55.287Z,76.84
2023-02-14T09:40:42.968Z,76.54
2023-02-14T09:41:29.927Z,76.22
2023-02-14T09:42:43.238Z,76.38
2023-02-14T09:43:59.003Z,76.04
2023-02-14T09:44:57.219Z,76.54
2023-02-14T09:45:48.410Z,75.88
2023-02-14T09:46:46.135Z,75.68
2023-02-14T09:47:43.212Z,76.21
2023-02-14T09:48:34.449Z,76.07
2023-02-14T09:49:36.676Z,75.74
2023-02-14T09:50:42.995Z,75.71
2023-02-14T09:51:31.491Z,75.42
2023-02-14T09:52:20.478Z,75.53
2023-02-14T09:53:34.610Z,75.71
2023-02-14T09:54:25.132Z,75.13
2023-02-14T09:55:16.859Z,74.44
2023-02-14T09:56:16.071Z,74.64
2023-02-14T09:57:18.360Z,74.09
2023-02-14T09:58:06.691Z,74.10
2023-02-14T09:59:26.078Z,73.55
2023-02-14T10:00:43.269Z,73.61
2023-02-14T10:01:35.111Z,73.47
2023-02-14T10:02:37.195Z,73.44
2023-02-14T10:03:48.650Z,72.61
2023-02-14T10:05:03.311Z,72.22
2023-02-14T10:06:10.623Z,71.66
2023-02-14T10:07:22.506Z,72.32
2023-02-14T10:08:51.889Z,72.77
2023-02-14T10:10:15.806Z,72.70
2023-02-14T10:11:23.526Z,73.36
2023-02-14T10:12:38.301Z,73.11
2023-02-14T10:13:37.054Z,72.64
2023-02-14T10:14:28.146Z,71.92
2023-02-14T10:15:22.725Z,71.84
2023-02-14T10:16:29.671Z,71.63
2023-02-14T10:17:31.447Z,72.48
2023-02-14T10:18:22.838Z,73.00
2023-02-14T10:19:33.713Z,72.57
2023-02-14T10:20:31.196Z,72.76
2023-02-14T10:21:44.816Z,73.22
2023-02-14T10:22:40.831Z,73.71
2023-02-14T10:23:41.032Z,72.92
2023-02-14T10:24:32.297Z,73.28
2023-02-14T10:25:46.842Z,73.30
2023-02-14T10:26:38.360Z,74.10
2023-02-14T10:27:35.682Z,73.94
2023-02-14T10:28:32.925Z,74.00
2023-02-14T10:29:22.228Z,73.44
2023-02-14T10:30:27.610Z,73.24
2023-02-14T10:31:21.956Z,72.40
2023-02-14T10:32:15.256Z,72.48
2023-02-14T10:33:19.267Z,72.48
2023-02-14T10:34:27.518Z,72.00
2023-02-14T10:35:30.434Z,73.08
2023-02-14T10:36:52.110Z,73.55
2023-02-14T10:38:19.556Z,74.13
2023-02-14T10:39:12.515Z,74.08
2023-02-14T10:40:44.059Z,73.37
2023-02-14T10:41:57.995Z,73.94
2023-02-14T10:42:50.727Z,75.08
2023-02-14T10:43:50.113Z,74.83
2023-02-14T10:44:48.425Z,73.97
2023-02-14T10:45:56.508Z,74.02
2023-02-14T10:47:01.772Z,73.87
2023-02-14T10:48:06.540Z,74.33
2023-02-14T10:49:08.682Z,74.63
2023-02-14T10:50:12.695Z,75.26
2023-02-14T10:51:23.519Z,74.81
2023-02-14T10:52:23.279Z,74.88
2023-02-14T10:53:23.524Z,73.93
2023-02-14T10:54:20.630Z,74.12
2023-02-14T10:55:33.687Z,73.76
2023-02-14T10:56:32.692Z,72.72
2023-02-14T10:57:32.907Z,72.03
2023-02-14T10:58:21.970Z,72.42
2023-02-14T10:59:22.293Z,72.48
2023-02-14T11:00:21.529Z,72.82
2023-02-14T11:01:14.216Z,73.23
2023-02-14T11:02:01.880Z,73.55
2023-02-14T11:02:57.402Z,72.78